Pagrindinis puslapis
METAR-TAF:

METAR-TAF

Oro uostai :

Ocala International Airport (Jim Taylor Field)

Ocala, Florida, Jungtinės Amerikos Valstijos

platuma: 29-10N, ilguma: 082-13W, Aukštis: 27 m

Dabartinis oras

Ataskaita buvo paskelbta 39 minutes, ne 07:51 UTC
Vėjas 8 kt iš Šiaurės Vakarų
Temperatūra 11°C
Drėgmė 71%
Slėgis 1019 hPa
Matomumas: 16.1 km
Giedras dangus

METAR: KOCF 270751Z AUTO 32008KT 10SM CLR 11/06 A3008 RMK AO2 SLP185 T01110056 $

Laikas: 03:30 (08:30 UTC)


TAF: trūkstamas

Orai ataskaitas ir orų prognozės (METAR, TAF).

turimą stotys yra geltonos ir raudonos taškus žemėlapyje.

Perkelti pele per norėdami pamatyti stoties vardą.

Tada spustelėkite, norėdami matyti oro stebėjimo ir prognozės.

Norėdami pakeisti žemėlapį: spustelėkite ant žalios mygtukų su juodo kryžiaus žemyn,; žalią mygtuką su brūkšneliu, jei norite nutolinti; arba žalių rodyklių gretimoms žemėlapius.


METAR-TAF: